sensor_id;sensor_type;location;lat;lon;timestamp;P1;durP1;ratioP1;P2;durP2;ratioP2
71836;SDS011;59686;51.716;7.016;2024-01-27T00:01:48;10.50;;;3.13;;
71836;SDS011;59686;51.716;7.016;2024-01-27T00:04:13;10.57;;;3.43;;
71836;SDS011;59686;51.716;7.016;2024-01-27T00:06:39;8.13;;;3.07;;
71836;SDS011;59686;51.716;7.016;2024-01-27T00:09:04;10.60;;;3.17;;
71836;SDS011;59686;51.716;7.016;2024-01-27T00:11:31;13.60;;;3.50;;
71836;SDS011;59686;51.716;7.016;2024-01-27T00:13:57;7.63;;;2.93;;
71836;SDS011;59686;51.716;7.016;2024-01-27T00:16:24;11.97;;;3.47;;
71836;SDS011;59686;51.716;7.016;2024-01-27T00:18:50;8.13;;;3.60;;
71836;SDS011;59686;51.716;7.016;2024-01-27T00:21:15;8.23;;;3.20;;
71836;SDS011;59686;51.716;7.016;2024-01-27T00:23:41;10.57;;;3.37;;
71836;SDS011;59686;51.716;7.016;2024-01-27T00:26:07;9.80;;;2.93;;
71836;SDS011;59686;51.716;7.016;2024-01-27T00:28:32;9.10;;;2.97;;
71836;SDS011;59686;51.716;7.016;2024-01-27T00:30:58;9.80;;;3.53;;
71836;SDS011;59686;51.716;7.016;2024-01-27T00:33:24;8.97;;;3.17;;
71836;SDS011;59686;51.716;7.016;2024-01-27T00:35:49;10.37;;;2.80;;
71836;SDS011;59686;51.716;7.016;2024-01-27T00:38:16;10.70;;;3.17;;
71836;SDS011;59686;51.716;7.016;2024-01-27T00:40:41;7.93;;;2.80;;
71836;SDS011;59686;51.716;7.016;2024-01-27T00:43:07;8.63;;;2.80;;
71836;SDS011;59686;51.716;7.016;2024-01-27T00:45:33;10.10;;;3.10;;
71836;SDS011;59686;51.716;7.016;2024-01-27T00:47:58;6.33;;;3.23;;
71836;SDS011;59686;51.716;7.016;2024-01-27T00:50:24;11.53;;;3.30;;
71836;SDS011;59686;51.716;7.016;2024-01-27T00:52:50;12.97;;;3.17;;
71836;SDS011;59686;51.716;7.016;2024-01-27T00:55:16;10.47;;;3.33;;
71836;SDS011;59686;51.716;7.016;2024-01-27T00:57:45;9.93;;;3.30;;
71836;SDS011;59686;51.716;7.016;2024-01-27T01:00:10;10.33;;;3.20;;
71836;SDS011;59686;51.716;7.016;2024-01-27T01:02:37;9.67;;;3.33;;
71836;SDS011;59686;51.716;7.016;2024-01-27T01:07:37;7.13;;;3.17;;
71836;SDS011;59686;51.716;7.016;2024-01-27T01:10:02;12.03;;;3.77;;
71836;SDS011;59686;51.716;7.016;2024-01-27T01:12:29;9.80;;;3.07;;
71836;SDS011;59686;51.716;7.016;2024-01-27T01:14:55;7.00;;;3.27;;
71836;SDS011;59686;51.716;7.016;2024-01-27T01:17:21;9.93;;;3.13;;
71836;SDS011;59686;51.716;7.016;2024-01-27T01:19:47;8.90;;;3.50;;
71836;SDS011;59686;51.716;7.016;2024-01-27T01:22:12;9.67;;;3.07;;
71836;SDS011;59686;51.716;7.016;2024-01-27T01:24:38;9.00;;;3.53;;
71836;SDS011;59686;51.716;7.016;2024-01-27T01:27:04;8.60;;;3.13;;
71836;SDS011;59686;51.716;7.016;2024-01-27T01:29:37;8.37;;;3.80;;
71836;SDS011;59686;51.716;7.016;2024-01-27T01:32:02;12.50;;;3.13;;
71836;SDS011;59686;51.716;7.016;2024-01-27T01:34:28;10.90;;;3.40;;
71836;SDS011;59686;51.716;7.016;2024-01-27T01:36:54;10.80;;;3.43;;
71836;SDS011;59686;51.716;7.016;2024-01-27T01:39:20;9.30;;;3.57;;
71836;SDS011;59686;51.716;7.016;2024-01-27T01:44:22;9.50;;;3.40;;
71836;SDS011;59686;51.716;7.016;2024-01-27T01:46:54;10.57;;;3.33;;
71836;SDS011;59686;51.716;7.016;2024-01-27T01:49:20;10.53;;;2.97;;
71836;SDS011;59686;51.716;7.016;2024-01-27T01:51:46;11.40;;;3.40;;
71836;SDS011;59686;51.716;7.016;2024-01-27T01:54:28;7.97;;;3.03;;
71836;SDS011;59686;51.716;7.016;2024-01-27T01:56:55;7.53;;;2.97;;
71836;SDS011;59686;51.716;7.016;2024-01-27T01:59:23;9.27;;;3.13;;
71836;SDS011;59686;51.716;7.016;2024-01-27T02:04:38;10.07;;;3.57;;
71836;SDS011;59686;51.716;7.016;2024-01-27T02:07:05;9.10;;;3.10;;
71836;SDS011;59686;51.716;7.016;2024-01-27T02:09:30;10.20;;;3.33;;
71836;SDS011;59686;51.716;7.016;2024-01-27T02:11:56;12.13;;;3.30;;
71836;SDS011;59686;51.716;7.016;2024-01-27T02:14:22;8.37;;;3.40;;
71836;SDS011;59686;51.716;7.016;2024-01-27T02:16:50;7.63;;;2.80;;
71836;SDS011;59686;51.716;7.016;2024-01-27T02:19:16;9.87;;;3.10;;
71836;SDS011;59686;51.716;7.016;2024-01-27T02:21:41;9.93;;;3.43;;
71836;SDS011;59686;51.716;7.016;2024-01-27T02:24:07;7.50;;;3.00;;
71836;SDS011;59686;51.716;7.016;2024-01-27T02:26:33;7.90;;;3.17;;
71836;SDS011;59686;51.716;7.016;2024-01-27T02:28:58;6.70;;;2.87;;
71836;SDS011;59686;51.716;7.016;2024-01-27T02:31:24;9.27;;;3.07;;
71836;SDS011;59686;51.716;7.016;2024-01-27T02:33:49;7.80;;;3.00;;
71836;SDS011;59686;51.716;7.016;2024-01-27T02:36:15;8.30;;;3.50;;
71836;SDS011;59686;51.716;7.016;2024-01-27T02:38:41;8.00;;;3.00;;
71836;SDS011;59686;51.716;7.016;2024-01-27T02:41:06;8.93;;;3.20;;
71836;SDS011;59686;51.716;7.016;2024-01-27T02:43:32;11.00;;;3.47;;
71836;SDS011;59686;51.716;7.016;2024-01-27T02:45:57;10.10;;;3.63;;
71836;SDS011;59686;51.716;7.016;2024-01-27T02:48:23;8.23;;;3.10;;
71836;SDS011;59686;51.716;7.016;2024-01-27T02:50:49;9.37;;;3.00;;
71836;SDS011;59686;51.716;7.016;2024-01-27T02:53:26;7.80;;;3.60;;
71836;SDS011;59686;51.716;7.016;2024-01-27T02:55:51;9.67;;;3.20;;
71836;SDS011;59686;51.716;7.016;2024-01-27T02:58:17;10.63;;;3.23;;
71836;SDS011;59686;51.716;7.016;2024-01-27T03:00:42;8.13;;;3.03;;
71836;SDS011;59686;51.716;7.016;2024-01-27T03:03:08;11.70;;;3.37;;
71836;SDS011;59686;51.716;7.016;2024-01-27T03:05:34;8.33;;;3.43;;
71836;SDS011;59686;51.716;7.016;2024-01-27T03:07:59;6.50;;;2.90;;
71836;SDS011;59686;51.716;7.016;2024-01-27T03:10:25;7.13;;;3.20;;
71836;SDS011;59686;51.716;7.016;2024-01-27T03:12:51;5.53;;;3.27;;
71836;SDS011;59686;51.716;7.016;2024-01-27T03:15:16;8.87;;;3.50;;
71836;SDS011;59686;51.716;7.016;2024-01-27T03:17:42;6.57;;;3.47;;
71836;SDS011;59686;51.716;7.016;2024-01-27T03:20:08;10.90;;;3.33;;
71836;SDS011;59686;51.716;7.016;2024-01-27T03:22:38;10.23;;;3.50;;
71836;SDS011;59686;51.716;7.016;2024-01-27T03:25:05;6.43;;;3.03;;
71836;SDS011;59686;51.716;7.016;2024-01-27T03:27:32;6.77;;;2.80;;
71836;SDS011;59686;51.716;7.016;2024-01-27T03:30:00;11.07;;;3.30;;
71836;SDS011;59686;51.716;7.016;2024-01-27T03:32:27;8.93;;;3.30;;
71836;SDS011;59686;51.716;7.016;2024-01-27T03:34:53;6.77;;;2.97;;
71836;SDS011;59686;51.716;7.016;2024-01-27T03:37:18;8.47;;;3.50;;
71836;SDS011;59686;51.716;7.016;2024-01-27T03:39:47;7.80;;;3.27;;
71836;SDS011;59686;51.716;7.016;2024-01-27T03:42:13;7.57;;;3.57;;
71836;SDS011;59686;51.716;7.016;2024-01-27T03:44:38;7.67;;;3.50;;
71836;SDS011;59686;51.716;7.016;2024-01-27T03:47:04;7.87;;;3.50;;
71836;SDS011;59686;51.716;7.016;2024-01-27T03:49:29;9.93;;;3.33;;
71836;SDS011;59686;51.716;7.016;2024-01-27T03:51:55;8.00;;;3.40;;
71836;SDS011;59686;51.716;7.016;2024-01-27T03:54:21;8.80;;;3.50;;
71836;SDS011;59686;51.716;7.016;2024-01-27T03:56:46;10.27;;;3.40;;
71836;SDS011;59686;51.716;7.016;2024-01-27T03:59:12;8.03;;;3.80;;
71836;SDS011;59686;51.716;7.016;2024-01-27T04:01:38;8.90;;;3.33;;
71836;SDS011;59686;51.716;7.016;2024-01-27T04:04:03;7.87;;;3.40;;
71836;SDS011;59686;51.716;7.016;2024-01-27T04:06:35;9.37;;;3.67;;
71836;SDS011;59686;51.716;7.016;2024-01-27T04:09:08;7.57;;;3.60;;
71836;SDS011;59686;51.716;7.016;2024-01-27T04:11:34;6.93;;;3.90;;
71836;SDS011;59686;51.716;7.016;2024-01-27T04:14:01;7.63;;;3.27;;
71836;SDS011;59686;51.716;7.016;2024-01-27T04:16:27;10.37;;;4.13;;
71836;SDS011;59686;51.716;7.016;2024-01-27T04:18:53;9.37;;;3.80;;
71836;SDS011;59686;51.716;7.016;2024-01-27T04:21:18;7.60;;;3.57;;
71836;SDS011;59686;51.716;7.016;2024-01-27T04:23:44;7.07;;;4.07;;
71836;SDS011;59686;51.716;7.016;2024-01-27T04:26:10;7.67;;;3.73;;
71836;SDS011;59686;51.716;7.016;2024-01-27T04:28:36;7.83;;;3.80;;
71836;SDS011;59686;51.716;7.016;2024-01-27T04:31:02;7.13;;;3.27;;
71836;SDS011;59686;51.716;7.016;2024-01-27T04:33:28;5.37;;;3.37;;
71836;SDS011;59686;51.716;7.016;2024-01-27T04:35:53;10.67;;;4.20;;
71836;SDS011;59686;51.716;7.016;2024-01-27T04:38:19;8.80;;;3.60;;
71836;SDS011;59686;51.716;7.016;2024-01-27T04:40:45;9.97;;;3.73;;
71836;SDS011;59686;51.716;7.016;2024-01-27T04:43:14;8.07;;;3.60;;
71836;SDS011;59686;51.716;7.016;2024-01-27T04:45:41;7.23;;;3.60;;
71836;SDS011;59686;51.716;7.016;2024-01-27T04:48:07;10.07;;;3.83;;
71836;SDS011;59686;51.716;7.016;2024-01-27T04:50:33;6.43;;;3.40;;
71836;SDS011;59686;51.716;7.016;2024-01-27T04:52:59;7.87;;;3.57;;
71836;SDS011;59686;51.716;7.016;2024-01-27T04:55:24;8.70;;;3.80;;
71836;SDS011;59686;51.716;7.016;2024-01-27T04:57:50;7.50;;;3.87;;
71836;SDS011;59686;51.716;7.016;2024-01-27T05:00:16;6.50;;;3.90;;
71836;SDS011;59686;51.716;7.016;2024-01-27T05:02:42;6.93;;;3.53;;
71836;SDS011;59686;51.716;7.016;2024-01-27T05:05:08;9.30;;;3.97;;
71836;SDS011;59686;51.716;7.016;2024-01-27T05:07:34;8.53;;;3.50;;
71836;SDS011;59686;51.716;7.016;2024-01-27T05:09:59;9.93;;;4.10;;
71836;SDS011;59686;51.716;7.016;2024-01-27T05:12:25;6.67;;;3.70;;
71836;SDS011;59686;51.716;7.016;2024-01-27T05:14:51;12.10;;;4.00;;
71836;SDS011;59686;51.716;7.016;2024-01-27T05:17:17;9.80;;;4.30;;
71836;SDS011;59686;51.716;7.016;2024-01-27T05:19:43;9.90;;;4.30;;
71836;SDS011;59686;51.716;7.016;2024-01-27T05:22:09;9.50;;;3.87;;
71836;SDS011;59686;51.716;7.016;2024-01-27T05:24:34;7.23;;;3.57;;
71836;SDS011;59686;51.716;7.016;2024-01-27T05:27:00;7.87;;;4.07;;
71836;SDS011;59686;51.716;7.016;2024-01-27T05:29:27;8.63;;;4.20;;
71836;SDS011;59686;51.716;7.016;2024-01-27T05:31:53;7.77;;;4.27;;
71836;SDS011;59686;51.716;7.016;2024-01-27T05:34:19;7.57;;;3.93;;
71836;SDS011;59686;51.716;7.016;2024-01-27T05:36:45;8.97;;;4.70;;
71836;SDS011;59686;51.716;7.016;2024-01-27T05:39:12;8.40;;;4.20;;
71836;SDS011;59686;51.716;7.016;2024-01-27T05:41:38;8.10;;;4.50;;
71836;SDS011;59686;51.716;7.016;2024-01-27T05:44:04;7.80;;;3.90;;
71836;SDS011;59686;51.716;7.016;2024-01-27T05:46:29;8.57;;;4.50;;
71836;SDS011;59686;51.716;7.016;2024-01-27T05:48:55;8.40;;;3.90;;
71836;SDS011;59686;51.716;7.016;2024-01-27T05:51:36;8.70;;;4.20;;
71836;SDS011;59686;51.716;7.016;2024-01-27T05:54:03;8.93;;;3.90;;
71836;SDS011;59686;51.716;7.016;2024-01-27T05:56:28;9.70;;;5.03;;
71836;SDS011;59686;51.716;7.016;2024-01-27T05:58:54;9.57;;;4.03;;
71836;SDS011;59686;51.716;7.016;2024-01-27T06:01:20;8.60;;;4.13;;
71836;SDS011;59686;51.716;7.016;2024-01-27T06:03:46;8.40;;;4.43;;
71836;SDS011;59686;51.716;7.016;2024-01-27T06:06:11;8.83;;;3.80;;
71836;SDS011;59686;51.716;7.016;2024-01-27T06:08:37;6.57;;;4.03;;
71836;SDS011;59686;51.716;7.016;2024-01-27T06:11:03;8.47;;;4.67;;
71836;SDS011;59686;51.716;7.016;2024-01-27T06:13:29;7.57;;;4.50;;
71836;SDS011;59686;51.716;7.016;2024-01-27T06:15:54;7.27;;;4.33;;
71836;SDS011;59686;51.716;7.016;2024-01-27T06:18:20;8.30;;;4.17;;
71836;SDS011;59686;51.716;7.016;2024-01-27T06:20:46;7.80;;;4.30;;
71836;SDS011;59686;51.716;7.016;2024-01-27T06:23:13;6.90;;;4.70;;
71836;SDS011;59686;51.716;7.016;2024-01-27T06:25:38;9.67;;;4.43;;
71836;SDS011;59686;51.716;7.016;2024-01-27T06:28:05;9.10;;;4.40;;
71836;SDS011;59686;51.716;7.016;2024-01-27T06:30:30;9.30;;;4.40;;
71836;SDS011;59686;51.716;7.016;2024-01-27T06:32:56;7.70;;;4.30;;
71836;SDS011;59686;51.716;7.016;2024-01-27T06:35:22;7.63;;;4.60;;
71836;SDS011;59686;51.716;7.016;2024-01-27T06:37:47;10.40;;;4.33;;
71836;SDS011;59686;51.716;7.016;2024-01-27T06:40:17;8.70;;;4.40;;
71836;SDS011;59686;51.716;7.016;2024-01-27T06:42:43;7.60;;;4.87;;
71836;SDS011;59686;51.716;7.016;2024-01-27T06:45:08;10.10;;;5.03;;
71836;SDS011;59686;51.716;7.016;2024-01-27T06:47:34;11.03;;;5.30;;
71836;SDS011;59686;51.716;7.016;2024-01-27T06:50:00;8.37;;;5.57;;
71836;SDS011;59686;51.716;7.016;2024-01-27T06:52:25;10.57;;;5.77;;
71836;SDS011;59686;51.716;7.016;2024-01-27T06:54:51;11.47;;;6.20;;
71836;SDS011;59686;51.716;7.016;2024-01-27T06:57:17;12.50;;;6.43;;
71836;SDS011;59686;51.716;7.016;2024-01-27T06:59:50;9.23;;;6.30;;
71836;SDS011;59686;51.716;7.016;2024-01-27T07:02:18;10.93;;;6.70;;
71836;SDS011;59686;51.716;7.016;2024-01-27T07:04:47;10.73;;;6.07;;
71836;SDS011;59686;51.716;7.016;2024-01-27T07:07:16;13.57;;;6.70;;
71836;SDS011;59686;51.716;7.016;2024-01-27T07:09:42;7.43;;;5.90;;
71836;SDS011;59686;51.716;7.016;2024-01-27T07:12:09;9.73;;;6.03;;
71836;SDS011;59686;51.716;7.016;2024-01-27T07:14:35;9.47;;;5.90;;
71836;SDS011;59686;51.716;7.016;2024-01-27T07:17:01;11.07;;;5.97;;
71836;SDS011;59686;51.716;7.016;2024-01-27T07:19:28;9.17;;;5.83;;
71836;SDS011;59686;51.716;7.016;2024-01-27T07:21:54;9.57;;;6.50;;
71836;SDS011;59686;51.716;7.016;2024-01-27T07:24:20;11.43;;;6.03;;
71836;SDS011;59686;51.716;7.016;2024-01-27T07:26:45;11.30;;;5.63;;
71836;SDS011;59686;51.716;7.016;2024-01-27T07:29:11;11.10;;;6.40;;
71836;SDS011;59686;51.716;7.016;2024-01-27T07:31:37;10.87;;;5.93;;
71836;SDS011;59686;51.716;7.016;2024-01-27T07:34:03;11.23;;;5.70;;
71836;SDS011;59686;51.716;7.016;2024-01-27T07:36:31;9.33;;;5.90;;
71836;SDS011;59686;51.716;7.016;2024-01-27T07:38:59;8.77;;;5.50;;
71836;SDS011;59686;51.716;7.016;2024-01-27T07:41:25;7.87;;;5.53;;
71836;SDS011;59686;51.716;7.016;2024-01-27T07:43:51;10.30;;;5.67;;
71836;SDS011;59686;51.716;7.016;2024-01-27T07:46:16;11.43;;;5.87;;
71836;SDS011;59686;51.716;7.016;2024-01-27T07:48:47;16.47;;;6.43;;
71836;SDS011;59686;51.716;7.016;2024-01-27T07:51:13;9.33;;;5.70;;
71836;SDS011;59686;51.716;7.016;2024-01-27T07:53:38;9.90;;;5.43;;
71836;SDS011;59686;51.716;7.016;2024-01-27T07:56:05;11.97;;;6.00;;
71836;SDS011;59686;51.716;7.016;2024-01-27T07:58:32;10.60;;;6.37;;
71836;SDS011;59686;51.716;7.016;2024-01-27T08:00:57;9.60;;;6.03;;
71836;SDS011;59686;51.716;7.016;2024-01-27T08:03:23;9.77;;;5.63;;
71836;SDS011;59686;51.716;7.016;2024-01-27T08:05:49;9.87;;;5.43;;
71836;SDS011;59686;51.716;7.016;2024-01-27T08:08:14;11.30;;;5.70;;
71836;SDS011;59686;51.716;7.016;2024-01-27T08:10:40;9.43;;;5.70;;
71836;SDS011;59686;51.716;7.016;2024-01-27T08:13:06;7.87;;;5.60;;
71836;SDS011;59686;51.716;7.016;2024-01-27T08:15:32;11.87;;;6.03;;
71836;SDS011;59686;51.716;7.016;2024-01-27T08:17:57;8.50;;;5.77;;
71836;SDS011;59686;51.716;7.016;2024-01-27T08:20:23;12.07;;;5.93;;
71836;SDS011;59686;51.716;7.016;2024-01-27T08:22:49;12.57;;;6.13;;
71836;SDS011;59686;51.716;7.016;2024-01-27T08:25:16;11.13;;;6.20;;
71836;SDS011;59686;51.716;7.016;2024-01-27T08:27:43;9.93;;;5.80;;
71836;SDS011;59686;51.716;7.016;2024-01-27T08:30:10;13.73;;;6.70;;
71836;SDS011;59686;51.716;7.016;2024-01-27T08:32:36;11.70;;;5.53;;
71836;SDS011;59686;51.716;7.016;2024-01-27T08:35:01;14.40;;;6.87;;
71836;SDS011;59686;51.716;7.016;2024-01-27T08:37:27;12.50;;;5.63;;
71836;SDS011;59686;51.716;7.016;2024-01-27T08:39:53;11.73;;;5.80;;
71836;SDS011;59686;51.716;7.016;2024-01-27T08:42:18;10.00;;;5.50;;
71836;SDS011;59686;51.716;7.016;2024-01-27T08:44:44;14.47;;;6.43;;
71836;SDS011;59686;51.716;7.016;2024-01-27T08:47:16;10.37;;;5.80;;
71836;SDS011;59686;51.716;7.016;2024-01-27T08:49:42;12.83;;;5.47;;
71836;SDS011;59686;51.716;7.016;2024-01-27T08:52:07;11.90;;;5.90;;
71836;SDS011;59686;51.716;7.016;2024-01-27T08:54:33;10.57;;;6.23;;
71836;SDS011;59686;51.716;7.016;2024-01-27T08:56:59;12.83;;;6.10;;
71836;SDS011;59686;51.716;7.016;2024-01-27T08:59:24;10.97;;;5.83;;
71836;SDS011;59686;51.716;7.016;2024-01-27T09:01:50;9.30;;;5.57;;
71836;SDS011;59686;51.716;7.016;2024-01-27T09:04:16;10.93;;;5.87;;
71836;SDS011;59686;51.716;7.016;2024-01-27T09:06:41;12.17;;;5.63;;
71836;SDS011;59686;51.716;7.016;2024-01-27T09:09:07;13.03;;;6.20;;
71836;SDS011;59686;51.716;7.016;2024-01-27T09:11:42;12.23;;;6.07;;
71836;SDS011;59686;51.716;7.016;2024-01-27T09:14:08;13.77;;;6.60;;
71836;SDS011;59686;51.716;7.016;2024-01-27T09:16:33;14.00;;;6.33;;
71836;SDS011;59686;51.716;7.016;2024-01-27T09:18:59;12.03;;;6.13;;
71836;SDS011;59686;51.716;7.016;2024-01-27T09:21:25;11.63;;;5.93;;
71836;SDS011;59686;51.716;7.016;2024-01-27T09:23:54;13.77;;;6.20;;
71836;SDS011;59686;51.716;7.016;2024-01-27T09:26:20;11.10;;;5.83;;
71836;SDS011;59686;51.716;7.016;2024-01-27T09:31:23;12.87;;;6.57;;
71836;SDS011;59686;51.716;7.016;2024-01-27T09:33:50;13.77;;;6.10;;
71836;SDS011;59686;51.716;7.016;2024-01-27T09:36:20;12.70;;;6.00;;
71836;SDS011;59686;51.716;7.016;2024-01-27T09:38:46;14.17;;;6.20;;
71836;SDS011;59686;51.716;7.016;2024-01-27T09:41:15;13.00;;;6.70;;
71836;SDS011;59686;51.716;7.016;2024-01-27T09:43:44;13.33;;;6.37;;
71836;SDS011;59686;51.716;7.016;2024-01-27T09:46:15;11.07;;;6.00;;
71836;SDS011;59686;51.716;7.016;2024-01-27T09:48:41;14.57;;;6.07;;
71836;SDS011;59686;51.716;7.016;2024-01-27T09:51:08;15.07;;;6.57;;
71836;SDS011;59686;51.716;7.016;2024-01-27T09:53:35;15.00;;;5.87;;
71836;SDS011;59686;51.716;7.016;2024-01-27T09:56:01;13.77;;;6.10;;
71836;SDS011;59686;51.716;7.016;2024-01-27T09:58:31;13.40;;;6.60;;
71836;SDS011;59686;51.716;7.016;2024-01-27T10:00:57;14.87;;;5.87;;
71836;SDS011;59686;51.716;7.016;2024-01-27T10:03:30;14.40;;;6.33;;
71836;SDS011;59686;51.716;7.016;2024-01-27T10:05:57;12.97;;;6.47;;
71836;SDS011;59686;51.716;7.016;2024-01-27T10:08:23;10.50;;;5.70;;
71836;SDS011;59686;51.716;7.016;2024-01-27T10:10:50;14.50;;;6.07;;
71836;SDS011;59686;51.716;7.016;2024-01-27T10:13:19;14.83;;;5.50;;
71836;SDS011;59686;51.716;7.016;2024-01-27T10:16:01;13.37;;;5.80;;
71836;SDS011;59686;51.716;7.016;2024-01-27T10:18:31;15.47;;;6.30;;
71836;SDS011;59686;51.716;7.016;2024-01-27T10:20:57;15.93;;;6.53;;
71836;SDS011;59686;51.716;7.016;2024-01-27T10:23:23;12.77;;;5.83;;
71836;SDS011;59686;51.716;7.016;2024-01-27T10:25:49;12.77;;;5.70;;
71836;SDS011;59686;51.716;7.016;2024-01-27T10:28:16;12.13;;;6.07;;
71836;SDS011;59686;51.716;7.016;2024-01-27T10:33:14;13.27;;;6.20;;
71836;SDS011;59686;51.716;7.016;2024-01-27T10:35:42;13.00;;;5.77;;
71836;SDS011;59686;51.716;7.016;2024-01-27T10:38:08;14.43;;;6.30;;
71836;SDS011;59686;51.716;7.016;2024-01-27T10:40:37;16.50;;;5.73;;
71836;SDS011;59686;51.716;7.016;2024-01-27T10:43:04;14.00;;;6.33;;
71836;SDS011;59686;51.716;7.016;2024-01-27T10:45:34;15.20;;;6.23;;
71836;SDS011;59686;51.716;7.016;2024-01-27T10:48:04;14.57;;;5.97;;
71836;SDS011;59686;51.716;7.016;2024-01-27T10:50:35;13.50;;;5.87;;
71836;SDS011;59686;51.716;7.016;2024-01-27T10:53:03;14.40;;;6.37;;
71836;SDS011;59686;51.716;7.016;2024-01-27T10:55:33;15.80;;;6.60;;
71836;SDS011;59686;51.716;7.016;2024-01-27T10:58:07;17.63;;;6.30;;
71836;SDS011;59686;51.716;7.016;2024-01-27T11:00:34;21.27;;;6.70;;
71836;SDS011;59686;51.716;7.016;2024-01-27T11:03:01;21.77;;;6.90;;
71836;SDS011;59686;51.716;7.016;2024-01-27T11:05:27;18.90;;;7.07;;
71836;SDS011;59686;51.716;7.016;2024-01-27T11:07:55;13.70;;;5.67;;
71836;SDS011;59686;51.716;7.016;2024-01-27T11:10:22;13.13;;;6.33;;
71836;SDS011;59686;51.716;7.016;2024-01-27T11:12:48;13.97;;;6.23;;
71836;SDS011;59686;51.716;7.016;2024-01-27T11:15:20;17.40;;;5.87;;
71836;SDS011;59686;51.716;7.016;2024-01-27T11:17:46;16.73;;;5.93;;
71836;SDS011;59686;51.716;7.016;2024-01-27T11:20:12;15.83;;;6.63;;
71836;SDS011;59686;51.716;7.016;2024-01-27T11:22:39;14.97;;;6.07;;
71836;SDS011;59686;51.716;7.016;2024-01-27T11:27:43;18.10;;;5.90;;
71836;SDS011;59686;51.716;7.016;2024-01-27T11:30:30;16.90;;;6.57;;
71836;SDS011;59686;51.716;7.016;2024-01-27T11:33:02;14.07;;;5.70;;
71836;SDS011;59686;51.716;7.016;2024-01-27T11:35:29;14.47;;;6.07;;
71836;SDS011;59686;51.716;7.016;2024-01-27T11:37:55;14.37;;;6.13;;
71836;SDS011;59686;51.716;7.016;2024-01-27T11:40:21;14.60;;;6.07;;
71836;SDS011;59686;51.716;7.016;2024-01-27T11:42:56;13.63;;;6.43;;
71836;SDS011;59686;51.716;7.016;2024-01-27T11:45:23;14.27;;;6.53;;
71836;SDS011;59686;51.716;7.016;2024-01-27T11:47:49;13.90;;;6.37;;
71836;SDS011;59686;51.716;7.016;2024-01-27T11:50:16;15.50;;;6.13;;
71836;SDS011;59686;51.716;7.016;2024-01-27T11:52:43;16.30;;;6.53;;
71836;SDS011;59686;51.716;7.016;2024-01-27T11:55:09;16.40;;;5.90;;
71836;SDS011;59686;51.716;7.016;2024-01-27T11:57:41;12.70;;;6.20;;
71836;SDS011;59686;51.716;7.016;2024-01-27T12:00:07;14.77;;;5.53;;
71836;SDS011;59686;51.716;7.016;2024-01-27T12:02:36;24.73;;;6.57;;
71836;SDS011;59686;51.716;7.016;2024-01-27T12:07:35;14.10;;;5.77;;
71836;SDS011;59686;51.716;7.016;2024-01-27T12:10:01;9.70;;;5.37;;
71836;SDS011;59686;51.716;7.016;2024-01-27T12:12:26;13.63;;;5.70;;
71836;SDS011;59686;51.716;7.016;2024-01-27T12:14:53;11.83;;;5.83;;
71836;SDS011;59686;51.716;7.016;2024-01-27T12:17:19;13.73;;;6.03;;
71836;SDS011;59686;51.716;7.016;2024-01-27T12:19:47;13.23;;;5.73;;
71836;SDS011;59686;51.716;7.016;2024-01-27T12:22:20;14.97;;;5.13;;
71836;SDS011;59686;51.716;7.016;2024-01-27T12:24:48;12.57;;;5.33;;
71836;SDS011;59686;51.716;7.016;2024-01-27T12:27:13;15.23;;;4.77;;
71836;SDS011;59686;51.716;7.016;2024-01-27T12:29:42;13.77;;;5.03;;
71836;SDS011;59686;51.716;7.016;2024-01-27T12:32:08;15.30;;;5.50;;
71836;SDS011;59686;51.716;7.016;2024-01-27T12:34:42;12.53;;;5.03;;
71836;SDS011;59686;51.716;7.016;2024-01-27T12:37:08;9.73;;;5.00;;
71836;SDS011;59686;51.716;7.016;2024-01-27T12:39:37;15.47;;;4.87;;
71836;SDS011;59686;51.716;7.016;2024-01-27T12:42:03;15.27;;;4.77;;
71836;SDS011;59686;51.716;7.016;2024-01-27T12:44:29;11.50;;;4.83;;
71836;SDS011;59686;51.716;7.016;2024-01-27T12:47:00;13.20;;;5.23;;
71836;SDS011;59686;51.716;7.016;2024-01-27T12:49:26;8.60;;;4.47;;
71836;SDS011;59686;51.716;7.016;2024-01-27T12:51:52;17.93;;;4.97;;
71836;SDS011;59686;51.716;7.016;2024-01-27T12:54:17;9.90;;;4.70;;
71836;SDS011;59686;51.716;7.016;2024-01-27T12:59:21;15.23;;;5.13;;
71836;SDS011;59686;51.716;7.016;2024-01-27T13:01:46;10.17;;;4.40;;
71836;SDS011;59686;51.716;7.016;2024-01-27T13:04:15;12.87;;;3.97;;
71836;SDS011;59686;51.716;7.016;2024-01-27T13:06:41;16.33;;;4.73;;
71836;SDS011;59686;51.716;7.016;2024-01-27T13:09:07;13.47;;;4.40;;
71836;SDS011;59686;51.716;7.016;2024-01-27T13:11:36;10.43;;;3.87;;
71836;SDS011;59686;51.716;7.016;2024-01-27T13:14:03;12.07;;;4.30;;
71836;SDS011;59686;51.716;7.016;2024-01-27T13:16:29;12.63;;;4.07;;
71836;SDS011;59686;51.716;7.016;2024-01-27T13:18:54;8.53;;;4.13;;
71836;SDS011;59686;51.716;7.016;2024-01-27T13:21:20;10.27;;;4.57;;
71836;SDS011;59686;51.716;7.016;2024-01-27T13:23:46;11.23;;;4.07;;
71836;SDS011;59686;51.716;7.016;2024-01-27T13:26:15;9.20;;;4.00;;
71836;SDS011;59686;51.716;7.016;2024-01-27T13:28:41;10.47;;;3.80;;
71836;SDS011;59686;51.716;7.016;2024-01-27T13:31:06;13.37;;;4.10;;
71836;SDS011;59686;51.716;7.016;2024-01-27T13:33:32;11.97;;;4.23;;
71836;SDS011;59686;51.716;7.016;2024-01-27T13:36:00;12.80;;;4.33;;
71836;SDS011;59686;51.716;7.016;2024-01-27T13:38:26;12.67;;;4.33;;
71836;SDS011;59686;51.716;7.016;2024-01-27T13:40:51;11.03;;;4.10;;
71836;SDS011;59686;51.716;7.016;2024-01-27T13:43:17;8.90;;;3.60;;
71836;SDS011;59686;51.716;7.016;2024-01-27T13:45:43;12.73;;;3.77;;
71836;SDS011;59686;51.716;7.016;2024-01-27T13:48:09;9.80;;;3.53;;
71836;SDS011;59686;51.716;7.016;2024-01-27T13:50:35;10.33;;;3.40;;
71836;SDS011;59686;51.716;7.016;2024-01-27T13:53:01;11.43;;;4.10;;
71836;SDS011;59686;51.716;7.016;2024-01-27T13:55:27;14.53;;;3.87;;
71836;SDS011;59686;51.716;7.016;2024-01-27T13:57:53;9.73;;;3.77;;
71836;SDS011;59686;51.716;7.016;2024-01-27T14:00:20;7.80;;;3.10;;
71836;SDS011;59686;51.716;7.016;2024-01-27T14:02:46;14.43;;;3.83;;
71836;SDS011;59686;51.716;7.016;2024-01-27T14:05:12;10.53;;;3.63;;
71836;SDS011;59686;51.716;7.016;2024-01-27T14:07:38;12.90;;;3.70;;
71836;SDS011;59686;51.716;7.016;2024-01-27T14:10:03;8.83;;;3.47;;
71836;SDS011;59686;51.716;7.016;2024-01-27T14:12:29;9.63;;;3.33;;
71836;SDS011;59686;51.716;7.016;2024-01-27T14:15:03;8.77;;;3.07;;
71836;SDS011;59686;51.716;7.016;2024-01-27T14:17:33;13.17;;;2.97;;
71836;SDS011;59686;51.716;7.016;2024-01-27T14:20:01;16.17;;;4.00;;
71836;SDS011;59686;51.716;7.016;2024-01-27T14:22:28;11.30;;;3.90;;
71836;SDS011;59686;51.716;7.016;2024-01-27T14:27:58;8.83;;;3.57;;
71836;SDS011;59686;51.716;7.016;2024-01-27T14:30:23;8.70;;;3.83;;
71836;SDS011;59686;51.716;7.016;2024-01-27T14:32:49;12.70;;;3.27;;
71836;SDS011;59686;51.716;7.016;2024-01-27T14:35:15;11.97;;;3.30;;
71836;SDS011;59686;51.716;7.016;2024-01-27T14:37:41;10.10;;;3.53;;
71836;SDS011;59686;51.716;7.016;2024-01-27T14:40:06;7.53;;;3.27;;
71836;SDS011;59686;51.716;7.016;2024-01-27T14:42:33;9.77;;;3.53;;
71836;SDS011;59686;51.716;7.016;2024-01-27T14:45:01;8.10;;;3.40;;
71836;SDS011;59686;51.716;7.016;2024-01-27T14:47:34;9.60;;;3.70;;
71836;SDS011;59686;51.716;7.016;2024-01-27T14:50:00;11.60;;;3.50;;
71836;SDS011;59686;51.716;7.016;2024-01-27T14:52:25;8.30;;;3.20;;
71836;SDS011;59686;51.716;7.016;2024-01-27T14:54:51;11.30;;;3.73;;
71836;SDS011;59686;51.716;7.016;2024-01-27T14:57:17;7.47;;;3.57;;
71836;SDS011;59686;51.716;7.016;2024-01-27T14:59:43;9.80;;;2.97;;
71836;SDS011;59686;51.716;7.016;2024-01-27T15:02:09;11.80;;;3.37;;